Time;durP1;ratioP1;P1;durP2;ratioP2;P2;SDS_P1;SDS_P2;PMS_P1;PMS_P2;Temp;Humidity;BMP_temperature;BMP_pressure;BME280_temperature;BME280_humidity;BME280_pressure;Samples;Min_cycle;Max_cycle;Signal;HPM_P1;HPM_P2
2022/07/17 00:00:44;;;;;;;19.83;5.57;;;;;;;;;;5052573;28;20048;-70
2022/07/17 00:03:11;;;;;;;9.68;5.47;;;;;;;;;;5051815;28;20087;-69
2022/07/17 00:05:37;;;;;;;14.05;5.00;;;;;;;;;;5051379;28;20170;-69
2022/07/17 00:08:03;;;;;;;11.25;5.78;;;;;;;;;;5057046;28;20021;-69
2022/07/17 00:10:29;;;;;;;14.75;6.25;;;;;;;;;;5057517;28;20113;-69
2022/07/17 00:12:55;;;;;;;12.07;6.32;;;;;;;;;;5057187;28;20036;-68
2022/07/17 00:15:21;;;;;;;14.95;5.88;;;;;;;;;;5056988;28;20033;-69
2022/07/17 00:17:49;;;;;;;12.07;6.45;;;;;;;;;;5057000;28;20029;-69
2022/07/17 00:20:15;;;;;;;10.40;5.60;;;;;;;;;;5056944;28;20106;-70
2022/07/17 00:22:42;;;;;;;12.18;5.25;;;;;;;;;;5057127;28;20474;-70
2022/07/17 00:25:09;;;;;;;13.05;5.68;;;;;;;;;;5057177;28;20029;-69
2022/07/17 00:27:36;;;;;;;10.50;5.63;;;;;;;;;;5057477;28;20479;-69
2022/07/17 00:30:03;;;;;;;11.57;5.70;;;;;;;;;;5057544;28;20032;-68
2022/07/17 00:32:29;;;;;;;14.52;5.90;;;;;;;;;;5057774;28;20025;-69
2022/07/17 00:34:55;;;;;;;11.80;5.82;;;;;;;;;;5058503;28;20048;-70
2022/07/17 00:37:21;;;;;;;13.75;6.18;;;;;;;;;;5058167;28;20033;-69
2022/07/17 00:39:47;;;;;;;15.23;6.18;;;;;;;;;;5057535;28;20506;-71
2022/07/17 00:42:14;;;;;;;10.88;5.72;;;;;;;;;;5057888;28;20021;-70
2022/07/17 00:44:41;;;;;;;9.82;5.55;;;;;;;;;;5057901;28;20099;-70
2022/07/17 00:47:14;;;;;;;12.73;5.57;;;;;;;;;;5056754;28;20100;-70
2022/07/17 00:49:41;;;;;;;16.17;7.50;;;;;;;;;;5057833;28;20032;-69
2022/07/17 00:52:08;;;;;;;13.52;6.57;;;;;;;;;;5058141;28;20025;-70
2022/07/17 00:54:35;;;;;;;15.27;6.22;;;;;;;;;;5058085;28;20025;-70
2022/07/17 00:57:02;;;;;;;14.90;6.40;;;;;;;;;;5057799;28;20048;-69
2022/07/17 00:59:28;;;;;;;16.65;6.88;;;;;;;;;;5056269;28;20021;-70
2022/07/17 01:01:54;;;;;;;12.70;6.60;;;;;;;;;;5057440;28;20041;-70
2022/07/17 01:04:22;;;;;;;15.98;6.97;;;;;;;;;;5056419;28;20045;-70
2022/07/17 01:06:48;;;;;;;16.42;7.45;;;;;;;;;;5056980;28;20064;-69
2022/07/17 01:09:14;;;;;;;20.42;6.88;;;;;;;;;;5056883;28;20033;-69
2022/07/17 01:11:40;;;;;;;13.48;6.63;;;;;;;;;;5054985;28;20217;-69
2022/07/17 01:14:06;;;;;;;14.98;6.70;;;;;;;;;;5056033;28;20024;-68
2022/07/17 01:16:33;;;;;;;12.27;7.13;;;;;;;;;;5055628;28;20025;-69
2022/07/17 01:18:59;;;;;;;13.30;6.78;;;;;;;;;;5052020;28;20082;-69
2022/07/17 01:21:25;;;;;;;11.13;5.95;;;;;;;;;;5052767;28;20037;-68
2022/07/17 01:23:51;;;;;;;8.82;6.35;;;;;;;;;;5052955;28;20078;-69
2022/07/17 01:26:17;;;;;;;11.93;6.47;;;;;;;;;;5051212;28;20033;-69
2022/07/17 01:28:43;;;;;;;13.70;6.22;;;;;;;;;;5052507;28;20478;-70
2022/07/17 01:31:09;;;;;;;12.38;6.25;;;;;;;;;;5051063;28;20037;-70
2022/07/17 01:33:35;;;;;;;19.35;7.22;;;;;;;;;;5052841;28;20061;-70
2022/07/17 01:36:01;;;;;;;7.93;5.90;;;;;;;;;;5052400;28;20096;-70
2022/07/17 01:38:27;;;;;;;12.82;6.57;;;;;;;;;;5052657;28;20178;-70
2022/07/17 01:40:53;;;;;;;12.18;6.50;;;;;;;;;;5052457;28;20033;-70
2022/07/17 01:43:20;;;;;;;11.65;5.63;;;;;;;;;;5052515;28;20052;-70
2022/07/17 01:45:46;;;;;;;7.57;5.57;;;;;;;;;;5052159;28;20186;-67
2022/07/17 01:48:12;;;;;;;8.48;5.43;;;;;;;;;;5052210;28;20032;-69
2022/07/17 01:50:38;;;;;;;9.20;5.68;;;;;;;;;;5052166;28;20029;-70
2022/07/17 01:53:04;;;;;;;11.55;5.82;;;;;;;;;;5052275;28;20060;-68
2022/07/17 01:55:30;;;;;;;12.45;6.47;;;;;;;;;;5051964;28;20048;-71
2022/07/17 01:57:56;;;;;;;11.98;6.30;;;;;;;;;;5051188;28;20047;-71
2022/07/17 02:00:24;;;;;;;16.05;6.80;;;;;;;;;;5051421;28;20112;-68
2022/07/17 02:02:50;;;;;;;11.15;6.90;;;;;;;;;;5053009;28;20474;-68
2022/07/17 02:05:16;;;;;;;13.73;6.82;;;;;;;;;;5053288;28;20029;-69
2022/07/17 02:07:44;;;;;;;10.70;6.38;;;;;;;;;;5052610;28;20062;-70
2022/07/17 02:10:10;;;;;;;12.25;6.55;;;;;;;;;;5052622;28;20437;-69
2022/07/17 02:12:36;;;;;;;15.90;7.03;;;;;;;;;;5052820;28;20021;-69
2022/07/17 02:15:03;;;;;;;13.38;7.57;;;;;;;;;;5052646;28;20033;-69
2022/07/17 02:17:29;;;;;;;13.20;6.70;;;;;;;;;;5051676;28;20056;-68
2022/07/17 02:19:55;;;;;;;14.68;6.93;;;;;;;;;;5053402;28;20040;-68
2022/07/17 02:22:21;;;;;;;12.88;6.95;;;;;;;;;;5052880;28;20029;-70
2022/07/17 02:24:47;;;;;;;12.63;6.90;;;;;;;;;;5053093;28;20040;-69
2022/07/17 02:27:13;;;;;;;11.50;6.65;;;;;;;;;;5052467;28;20025;-69
2022/07/17 02:29:39;;;;;;;9.48;6.20;;;;;;;;;;5052450;28;20029;-70
2022/07/17 02:32:06;;;;;;;14.68;7.03;;;;;;;;;;5052466;28;20482;-69
2022/07/17 02:34:32;;;;;;;11.45;7.00;;;;;;;;;;5052623;28;20104;-70
2022/07/17 02:36:58;;;;;;;14.27;6.60;;;;;;;;;;5052585;28;20029;-68
2022/07/17 02:39:24;;;;;;;14.63;7.80;;;;;;;;;;5052220;28;20129;-68
2022/07/17 02:41:50;;;;;;;9.95;6.72;;;;;;;;;;5051861;28;20086;-69
2022/07/17 02:44:16;;;;;;;10.95;6.65;;;;;;;;;;5052184;28;20083;-68
2022/07/17 02:46:42;;;;;;;10.27;6.30;;;;;;;;;;5051681;28;20474;-68
2022/07/17 02:49:08;;;;;;;10.18;6.43;;;;;;;;;;5051522;28;20025;-69
2022/07/17 02:51:34;;;;;;;10.00;6.75;;;;;;;;;;5051457;28;20029;-68
2022/07/17 02:54:00;;;;;;;10.88;6.60;;;;;;;;;;5051599;28;20697;-69
2022/07/17 02:56:26;;;;;;;14.20;7.03;;;;;;;;;;5050946;28;20045;-69
2022/07/17 02:58:52;;;;;;;19.60;8.13;;;;;;;;;;5049914;28;20025;-69
2022/07/17 03:01:18;;;;;;;15.27;6.93;;;;;;;;;;5052497;28;20032;-69
2022/07/17 03:03:44;;;;;;;12.18;7.25;;;;;;;;;;5050817;28;20056;-69
2022/07/17 03:06:10;;;;;;;9.43;6.70;;;;;;;;;;5051206;28;20036;-69
2022/07/17 03:08:36;;;;;;;8.50;6.38;;;;;;;;;;5049274;28;20033;-70
2022/07/17 03:11:02;;;;;;;10.25;6.28;;;;;;;;;;5050832;28;20505;-68
2022/07/17 03:13:28;;;;;;;15.25;7.60;;;;;;;;;;5051296;28;20044;-68
2022/07/17 03:15:54;;;;;;;9.10;5.20;;;;;;;;;;5051044;28;20028;-68
2022/07/17 03:18:20;;;;;;;13.80;6.25;;;;;;;;;;5050967;28;20441;-68
2022/07/17 03:20:46;;;;;;;6.07;4.60;;;;;;;;;;5051280;28;20029;-68
2022/07/17 03:23:12;;;;;;;6.40;4.43;;;;;;;;;;5051043;28;20043;-70
2022/07/17 03:25:38;;;;;;;6.57;4.13;;;;;;;;;;5050963;28;20029;-70
2022/07/17 03:28:04;;;;;;;8.23;4.80;;;;;;;;;;5050710;28;20032;-68
2022/07/17 03:30:30;;;;;;;10.10;5.72;;;;;;;;;;5051055;28;20033;-69
2022/07/17 03:32:56;;;;;;;11.63;5.68;;;;;;;;;;5049384;28;20025;-69
2022/07/17 03:35:22;;;;;;;12.25;6.45;;;;;;;;;;5051123;28;20394;-68
2022/07/17 03:37:48;;;;;;;9.63;6.07;;;;;;;;;;5050499;28;20029;-69
2022/07/17 03:40:14;;;;;;;9.85;6.47;;;;;;;;;;5048620;28;20481;-69
2022/07/17 03:42:40;;;;;;;8.45;6.22;;;;;;;;;;5050358;28;20041;-69
2022/07/17 03:45:07;;;;;;;11.15;6.60;;;;;;;;;;5050867;28;20126;-69
2022/07/17 03:47:33;;;;;;;9.25;6.05;;;;;;;;;;5050900;28;20055;-69
2022/07/17 03:49:58;;;;;;;11.60;6.45;;;;;;;;;;5051019;28;20108;-69
2022/07/17 03:52:24;;;;;;;10.05;6.45;;;;;;;;;;5051090;28;20466;-69
2022/07/17 03:54:50;;;;;;;13.75;6.70;;;;;;;;;;5050650;28;20037;-68
2022/07/17 03:57:16;;;;;;;10.65;6.15;;;;;;;;;;5049223;28;20107;-70
2022/07/17 03:59:42;;;;;;;13.40;6.57;;;;;;;;;;5051209;28;20040;-69
2022/07/17 04:02:08;;;;;;;12.57;6.47;;;;;;;;;;5053124;28;20087;-69
2022/07/17 04:04:35;;;;;;;13.57;7.63;;;;;;;;;;5051257;28;20367;-70
2022/07/17 04:07:01;;;;;;;19.60;6.95;;;;;;;;;;5053777;28;20044;-70
2022/07/17 04:09:27;;;;;;;12.95;6.47;;;;;;;;;;5054120;28;20029;-69
2022/07/17 04:11:53;;;;;;;12.40;6.20;;;;;;;;;;5053009;28;20497;-70
2022/07/17 04:14:19;;;;;;;12.93;6.00;;;;;;;;;;5054024;28;20033;-68
2022/07/17 04:16:46;;;;;;;12.13;5.90;;;;;;;;;;5052624;28;20025;-69
2022/07/17 04:19:12;;;;;;;12.45;6.53;;;;;;;;;;5053319;28;20053;-69
2022/07/17 04:21:38;;;;;;;9.77;6.80;;;;;;;;;;5049328;28;20402;-68
2022/07/17 04:24:04;;;;;;;11.65;6.68;;;;;;;;;;5050442;28;20040;-69
2022/07/17 04:26:30;;;;;;;10.38;6.50;;;;;;;;;;5050876;28;20035;-69
2022/07/17 04:28:56;;;;;;;9.02;5.65;;;;;;;;;;5050994;28;20096;-68
2022/07/17 04:31:22;;;;;;;12.75;6.18;;;;;;;;;;5051578;28;20033;-70
2022/07/17 04:33:52;;;;;;;11.85;6.22;;;;;;;;;;5051136;28;20029;-69
2022/07/17 04:36:18;;;;;;;14.68;6.10;;;;;;;;;;5049003;28;20029;-69
2022/07/17 04:38:44;;;;;;;10.82;5.80;;;;;;;;;;5050100;28;20039;-70
2022/07/17 04:41:10;;;;;;;11.88;5.78;;;;;;;;;;5049955;28;20024;-70
2022/07/17 04:43:36;;;;;;;11.00;5.28;;;;;;;;;;5048793;28;20033;-70
2022/07/17 04:46:02;;;;;;;9.88;4.40;;;;;;;;;;5048798;28;20497;-69
2022/07/17 04:48:28;;;;;;;8.38;3.95;;;;;;;;;;5048765;28;20037;-69
2022/07/17 04:50:54;;;;;;;9.38;3.80;;;;;;;;;;5048484;28;20036;-69
2022/07/17 04:53:20;;;;;;;10.77;3.63;;;;;;;;;;5052852;28;20135;-69
2022/07/17 04:55:46;;;;;;;11.60;3.25;;;;;;;;;;5053171;28;20052;-70
2022/07/17 04:58:12;;;;;;;8.25;3.10;;;;;;;;;;5053343;28;20041;-69
2022/07/17 05:00:38;;;;;;;8.32;2.85;;;;;;;;;;5052328;28;20044;-70
2022/07/17 05:03:04;;;;;;;12.25;3.60;;;;;;;;;;5053242;28;20380;-69
2022/07/17 05:05:30;;;;;;;7.05;2.88;;;;;;;;;;5053132;28;20095;-70
2022/07/17 05:07:56;;;;;;;13.40;3.40;;;;;;;;;;5053200;28;20028;-69
2022/07/17 05:10:22;;;;;;;7.60;2.80;;;;;;;;;;5053305;28;20061;-69
2022/07/17 05:12:48;;;;;;;8.35;3.35;;;;;;;;;;5053629;28;20029;-69
2022/07/17 05:15:14;;;;;;;8.35;3.60;;;;;;;;;;5052137;28;20029;-69
2022/07/17 05:17:40;;;;;;;8.85;3.20;;;;;;;;;;5053342;28;20065;-68
2022/07/17 05:20:07;;;;;;;11.38;3.95;;;;;;;;;;5053709;28;20028;-69
2022/07/17 05:22:33;;;;;;;8.00;4.00;;;;;;;;;;5053810;28;20028;-68
2022/07/17 05:24:59;;;;;;;8.68;3.53;;;;;;;;;;5054220;28;20021;-70
2022/07/17 05:27:25;;;;;;;8.63;3.22;;;;;;;;;;5054253;28;20101;-69
2022/07/17 05:29:51;;;;;;;9.38;3.30;;;;;;;;;;5053729;28;20494;-70
2022/07/17 05:32:17;;;;;;;10.82;3.45;;;;;;;;;;5053935;28;20033;-70
2022/07/17 05:34:43;;;;;;;9.15;3.22;;;;;;;;;;5055144;28;20104;-69
2022/07/17 05:37:09;;;;;;;12.82;4.18;;;;;;;;;;5053846;28;20466;-69
2022/07/17 05:39:35;;;;;;;11.82;3.33;;;;;;;;;;5053748;28;20029;-68
2022/07/17 05:42:01;;;;;;;10.00;3.55;;;;;;;;;;5054265;28;20037;-69
2022/07/17 05:44:27;;;;;;;8.75;3.40;;;;;;;;;;5055127;28;20037;-68
2022/07/17 05:46:53;;;;;;;13.38;3.53;;;;;;;;;;5054686;28;20029;-69
2022/07/17 05:49:19;;;;;;;8.45;3.05;;;;;;;;;;5052855;28;20033;-69
2022/07/17 05:51:45;;;;;;;12.25;3.72;;;;;;;;;;5053090;28;20033;-69
2022/07/17 05:54:11;;;;;;;10.07;3.30;;;;;;;;;;5054258;28;20029;-70
2022/07/17 05:56:37;;;;;;;11.07;3.20;;;;;;;;;;5053975;28;20044;-70
2022/07/17 05:59:03;;;;;;;12.13;3.80;;;;;;;;;;5053185;28;20498;-70
2022/07/17 06:01:29;;;;;;;9.48;2.65;;;;;;;;;;5053321;28;20033;-70
2022/07/17 06:03:55;;;;;;;8.20;2.78;;;;;;;;;;5052083;28;20033;-69
2022/07/17 06:06:21;;;;;;;12.88;2.65;;;;;;;;;;5051613;28;20479;-70
2022/07/17 06:08:47;;;;;;;9.18;2.50;;;;;;;;;;5052187;28;20025;-69
2022/07/17 06:11:13;;;;;;;7.95;3.00;;;;;;;;;;5051941;28;20033;-71
2022/07/17 06:13:39;;;;;;;9.57;2.47;;;;;;;;;;5050444;28;20032;-70
2022/07/17 06:16:05;;;;;;;4.80;2.30;;;;;;;;;;5050643;28;20035;-69
2022/07/17 06:18:31;;;;;;;12.20;2.75;;;;;;;;;;5051486;28;20029;-70
2022/07/17 06:20:58;;;;;;;7.93;2.42;;;;;;;;;;5051866;28;20399;-70
2022/07/17 06:23:24;;;;;;;8.80;2.60;;;;;;;;;;5050435;28;20513;-70
2022/07/17 06:25:50;;;;;;;11.68;2.20;;;;;;;;;;5052385;28;20038;-68
2022/07/17 06:28:16;;;;;;;7.65;1.95;;;;;;;;;;5051694;28;20028;-70
2022/07/17 06:30:42;;;;;;;6.63;2.00;;;;;;;;;;5052375;28;20497;-70
2022/07/17 06:33:08;;;;;;;10.52;1.98;;;;;;;;;;5052387;28;20044;-70
2022/07/17 06:35:34;;;;;;;6.07;1.98;;;;;;;;;;5053550;28;20482;-71
2022/07/17 06:38:02;;;;;;;6.88;1.90;;;;;;;;;;5052777;28;20028;-70
2022/07/17 06:40:28;;;;;;;11.25;2.08;;;;;;;;;;5052270;28;20132;-70
2022/07/17 06:42:54;;;;;;;14.77;2.28;;;;;;;;;;5051584;28;20037;-70
2022/07/17 06:45:20;;;;;;;6.60;2.03;;;;;;;;;;5051565;28;20033;-70
2022/07/17 06:47:46;;;;;;;7.93;2.42;;;;;;;;;;5050088;28;20029;-70
2022/07/17 06:50:12;;;;;;;6.95;1.80;;;;;;;;;;5049877;28;20071;-70
2022/07/17 06:52:38;;;;;;;9.52;1.67;;;;;;;;;;5051888;28;20122;-70
2022/07/17 06:55:04;;;;;;;9.48;1.70;;;;;;;;;;5052113;28;20021;-69
2022/07/17 06:57:30;;;;;;;8.60;1.80;;;;;;;;;;5052212;28;20132;-71
2022/07/17 06:59:57;;;;;;;6.75;1.80;;;;;;;;;;5050966;28;20029;-70
2022/07/17 07:02:23;;;;;;;4.47;1.70;;;;;;;;;;5051413;28;20498;-71
2022/07/17 07:04:49;;;;;;;5.95;1.73;;;;;;;;;;5052600;28;20478;-70
2022/07/17 07:07:15;;;;;;;8.85;1.75;;;;;;;;;;5052261;28;20029;-70
2022/07/17 07:09:41;;;;;;;11.57;1.60;;;;;;;;;;5052649;28;20033;-71
2022/07/17 07:12:07;;;;;;;5.70;1.55;;;;;;;;;;5052884;28;20043;-71
2022/07/17 07:14:33;;;;;;;8.27;1.75;;;;;;;;;;5051430;28;20025;-70
2022/07/17 07:16:59;;;;;;;5.05;1.60;;;;;;;;;;5051510;28;20036;-70
2022/07/17 07:19:25;;;;;;;8.35;1.50;;;;;;;;;;5051559;28;20402;-70
2022/07/17 07:21:51;;;;;;;5.57;1.30;;;;;;;;;;5052865;28;20037;-71
2022/07/17 07:24:17;;;;;;;6.63;1.10;;;;;;;;;;5052451;28;20024;-71
2022/07/17 07:26:43;;;;;;;6.30;1.25;;;;;;;;;;5051138;28;20052;-70
2022/07/17 07:29:09;;;;;;;5.50;1.50;;;;;;;;;;5054061;28;20112;-71
2022/07/17 07:31:35;;;;;;;15.90;1.50;;;;;;;;;;5054186;28;20037;-71
2022/07/17 07:34:01;;;;;;;9.02;1.20;;;;;;;;;;5052077;28;20074;-71
2022/07/17 07:36:27;;;;;;;5.03;1.10;;;;;;;;;;5052730;28;20033;-71
2022/07/17 07:38:53;;;;;;;6.72;1.33;;;;;;;;;;5052270;28;20052;-71
2022/07/17 07:41:19;;;;;;;7.68;1.38;;;;;;;;;;5051440;28;20442;-71
2022/07/17 07:43:45;;;;;;;5.90;1.40;;;;;;;;;;5050577;28;20512;-71
2022/07/17 07:46:12;;;;;;;7.57;1.20;;;;;;;;;;5048736;28;20037;-70
2022/07/17 07:48:38;;;;;;;9.82;1.50;;;;;;;;;;5048978;28;20067;-71
2022/07/17 07:51:04;;;;;;;5.78;1.33;;;;;;;;;;5049725;28;20366;-71
2022/07/17 07:53:30;;;;;;;7.38;1.50;;;;;;;;;;5050258;28;20051;-71
2022/07/17 07:55:56;;;;;;;5.97;1.25;;;;;;;;;;5049899;28;20080;-70
2022/07/17 07:58:22;;;;;;;5.25;1.15;;;;;;;;;;5048793;28;20053;-70
2022/07/17 08:00:48;;;;;;;7.90;1.52;;;;;;;;;;5049982;28;20033;-71
2022/07/17 08:03:15;;;;;;;3.75;1.23;;;;;;;;;;5050219;28;20348;-71
2022/07/17 08:05:42;;;;;;;7.82;1.63;;;;;;;;;;5050278;28;20033;-70
2022/07/17 08:08:08;;;;;;;5.15;1.50;;;;;;;;;;5050144;28;20029;-71
2022/07/17 08:10:34;;;;;;;5.47;1.55;;;;;;;;;;5049620;28;20029;-70
2022/07/17 08:13:01;;;;;;;7.20;1.10;;;;;;;;;;5049829;28;20589;-70
2022/07/17 08:15:27;;;;;;;4.63;1.17;;;;;;;;;;5050221;28;20033;-71
2022/07/17 08:17:53;;;;;;;8.75;1.38;;;;;;;;;;5050100;28;20028;-71
2022/07/17 08:20:20;;;;;;;6.63;1.30;;;;;;;;;;5050264;28;20079;-71
2022/07/17 08:22:47;;;;;;;5.32;1.20;;;;;;;;;;5050488;28;20028;-71
2022/07/17 08:25:13;;;;;;;4.85;1.42;;;;;;;;;;5050229;28;20094;-69
2022/07/17 08:27:40;;;;;;;6.53;1.23;;;;;;;;;;5050549;28;20115;-69
2022/07/17 08:30:07;;;;;;;3.80;1.23;;;;;;;;;;5054284;28;20116;-71
2022/07/17 08:32:33;;;;;;;4.25;1.50;;;;;;;;;;5053634;28;20497;-71
2022/07/17 08:35:00;;;;;;;6.13;1.58;;;;;;;;;;5054909;28;20029;-70
2022/07/17 08:37:27;;;;;;;6.35;1.10;;;;;;;;;;5054896;28;20017;-71
2022/07/17 08:39:53;;;;;;;5.80;1.20;;;;;;;;;;5055338;28;20124;-71
2022/07/17 08:42:19;;;;;;;7.32;1.23;;;;;;;;;;5055193;28;20151;-72
2022/07/17 08:44:46;;;;;;;6.85;1.33;;;;;;;;;;5055437;28;20029;-70
2022/07/17 08:47:12;;;;;;;7.00;1.40;;;;;;;;;;5055251;28;20051;-70
2022/07/17 08:49:41;;;;;;;3.90;1.10;;;;;;;;;;5056269;28;20025;-71
2022/07/17 08:52:07;;;;;;;7.47;1.33;;;;;;;;;;5054357;28;20036;-69
2022/07/17 08:54:33;;;;;;;3.88;1.60;;;;;;;;;;5055346;28;20546;-70
2022/07/17 08:57:00;;;;;;;5.18;1.42;;;;;;;;;;5055458;28;20213;-70
2022/07/17 08:59:26;;;;;;;4.95;1.33;;;;;;;;;;5057877;28;20096;-70
2022/07/17 09:01:52;;;;;;;3.30;1.30;;;;;;;;;;5056988;28;20052;-69
2022/07/17 09:04:18;;;;;;;3.95;1.45;;;;;;;;;;5054498;28;20478;-71
2022/07/17 09:06:44;;;;;;;5.03;1.20;;;;;;;;;;5057088;28;20125;-71
2022/07/17 09:09:11;;;;;;;4.43;1.83;;;;;;;;;;5056388;28;20033;-70
2022/07/17 09:11:50;;;;;;;6.40;1.15;;;;;;;;;;5057352;28;20032;-72
2022/07/17 09:14:17;;;;;;;2.97;1.35;;;;;;;;;;5055264;28;20114;-70
2022/07/17 09:16:49;;;;;;;6.32;1.30;;;;;;;;;;5054438;28;20032;-71
2022/07/17 09:19:29;;;;;;;4.47;1.50;;;;;;;;;;5054721;28;20474;-71
2022/07/17 09:22:09;;;;;;;4.75;1.70;;;;;;;;;;5053530;28;20033;-71
2022/07/17 09:24:45;;;;;;;5.45;1.90;;;;;;;;;;5053634;28;20029;-71
2022/07/17 09:27:11;;;;;;;4.20;1.50;;;;;;;;;;5051906;28;20028;-71
2022/07/17 09:29:51;;;;;;;5.97;1.60;;;;;;;;;;5052776;28;20033;-70
2022/07/17 09:32:18;;;;;;;7.45;1.42;;;;;;;;;;5033994;28;20037;-71
2022/07/17 09:34:45;;;;;;;7.03;1.85;;;;;;;;;;5031611;28;20032;-71
2022/07/17 09:37:11;;;;;;;5.40;1.30;;;;;;;;;;5031581;28;20048;-71
2022/07/17 09:39:38;;;;;;;4.38;1.27;;;;;;;;;;5031558;28;20104;-71
2022/07/17 09:42:04;;;;;;;4.03;1.70;;;;;;;;;;5015116;28;20032;-71
2022/07/17 09:44:31;;;;;;;7.55;1.55;;;;;;;;;;5031602;28;20030;-70
2022/07/17 09:46:56;;;;;;;5.57;1.67;;;;;;;;;;5031494;28;20033;-71
2022/07/17 09:49:26;;;;;;;3.97;1.50;;;;;;;;;;5042775;28;20044;-71
2022/07/17 09:51:52;;;;;;;2.65;1.35;;;;;;;;;;5052835;28;20060;-70
2022/07/17 09:54:20;;;;;;;6.28;1.60;;;;;;;;;;5051502;28;20029;-70
2022/07/17 09:56:47;;;;;;;7.30;1.65;;;;;;;;;;5052752;28;20041;-70
2022/07/17 09:59:14;;;;;;;4.32;1.60;;;;;;;;;;5052382;28;20020;-70
2022/07/17 10:01:40;;;;;;;4.53;1.83;;;;;;;;;;5051051;28;20482;-70
2022/07/17 10:04:07;;;;;;;6.20;1.48;;;;;;;;;;5052736;28;20094;-71
2022/07/17 10:06:33;;;;;;;6.57;1.35;;;;;;;;;;5053011;28;20039;-71
2022/07/17 10:08:59;;;;;;;4.82;1.60;;;;;;;;;;5052874;28;20064;-71
2022/07/17 10:11:28;;;;;;;7.75;1.80;;;;;;;;;;5051706;28;20021;-69
2022/07/17 10:13:55;;;;;;;5.97;1.73;;;;;;;;;;5052762;28;20623;-71
2022/07/17 10:16:31;;;;;;;6.72;1.80;;;;;;;;;;5051899;28;20024;-70
2022/07/17 10:18:58;;;;;;;6.03;1.52;;;;;;;;;;5052890;28;20032;-72
2022/07/17 10:21:25;;;;;;;5.25;1.50;;;;;;;;;;5053025;28;20041;-70
2022/07/17 10:23:51;;;;;;;5.53;2.03;;;;;;;;;;5053689;28;20029;-69
2022/07/17 10:26:17;;;;;;;4.53;1.83;;;;;;;;;;5039967;28;20036;-71
2022/07/17 10:28:44;;;;;;;5.18;1.83;;;;;;;;;;5032481;28;20107;-71
2022/07/17 10:31:10;;;;;;;3.22;1.35;;;;;;;;;;5033901;28;20026;-71
2022/07/17 10:33:36;;;;;;;3.08;1.55;;;;;;;;;;5033586;28;20030;-71
2022/07/17 10:36:03;;;;;;;5.15;1.80;;;;;;;;;;5032602;28;20029;-71
2022/07/17 10:38:29;;;;;;;6.07;2.08;;;;;;;;;;5034089;28;20029;-71
2022/07/17 10:41:01;;;;;;;5.25;2.03;;;;;;;;;;5032627;28;20113;-71
2022/07/17 10:43:27;;;;;;;3.90;1.52;;;;;;;;;;5033612;28;20076;-73
2022/07/17 10:45:54;;;;;;;4.63;1.90;;;;;;;;;;5033772;28;20773;-71
2022/07/17 10:48:21;;;;;;;7.45;1.85;;;;;;;;;;5034081;28;20052;-71
2022/07/17 10:50:49;;;;;;;6.32;1.50;;;;;;;;;;5033449;28;20117;-70
2022/07/17 10:53:21;;;;;;;6.22;1.83;;;;;;;;;;5033240;28;20022;-71
2022/07/17 10:55:49;;;;;;;5.40;1.63;;;;;;;;;;5032991;28;20044;-71
2022/07/17 10:58:15;;;;;;;7.13;1.95;;;;;;;;;;5035352;28;20071;-71
2022/07/17 11:00:41;;;;;;;6.00;2.00;;;;;;;;;;5044693;28;20028;-71
2022/07/17 11:03:11;;;;;;;6.78;2.15;;;;;;;;;;5054193;28;20131;-71
2022/07/17 11:05:37;;;;;;;4.75;1.90;;;;;;;;;;5053222;28;20028;-72
2022/07/17 11:08:08;;;;;;;8.25;2.30;;;;;;;;;;5051989;28;20059;-70
2022/07/17 11:10:35;;;;;;;5.65;2.20;;;;;;;;;;5052451;28;20035;-70
2022/07/17 11:13:09;;;;;;;5.15;2.05;;;;;;;;;;5051637;28;20449;-70
2022/07/17 11:15:46;;;;;;;5.03;1.67;;;;;;;;;;5051422;28;20100;-70
2022/07/17 11:18:22;;;;;;;3.13;1.65;;;;;;;;;;5051223;28;20382;-72
2022/07/17 11:20:48;;;;;;;3.40;1.73;;;;;;;;;;5051353;28;20110;-72
2022/07/17 11:23:14;;;;;;;6.45;1.75;;;;;;;;;;5051188;28;20017;-71
2022/07/17 11:26:02;;;;;;;5.20;1.98;;;;;;;;;;5049499;28;20447;-70
2022/07/17 11:28:30;;;;;;;4.70;1.63;;;;;;;;;;5049680;28;20510;-71
2022/07/17 11:30:56;;;;;;;6.80;1.80;;;;;;;;;;5050594;28;20116;-71
2022/07/17 11:33:22;;;;;;;5.78;1.98;;;;;;;;;;5050323;28;20037;-71
2022/07/17 11:35:48;;;;;;;6.40;1.92;;;;;;;;;;5049117;28;20029;-70
2022/07/17 11:38:15;;;;;;;4.38;1.75;;;;;;;;;;5050559;28;20029;-71
2022/07/17 11:40:47;;;;;;;3.55;1.80;;;;;;;;;;5050351;28;20040;-71
2022/07/17 11:43:13;;;;;;;8.40;2.03;;;;;;;;;;5050549;28;20127;-71
2022/07/17 11:45:39;;;;;;;3.55;1.67;;;;;;;;;;5050713;28;20109;-71
2022/07/17 11:48:06;;;;;;;5.00;1.98;;;;;;;;;;5050551;28;20057;-70
2022/07/17 11:50:32;;;;;;;6.10;1.85;;;;;;;;;;5050247;28;20525;-70
2022/07/17 11:53:01;;;;;;;4.05;1.90;;;;;;;;;;5050539;28;20021;-70
2022/07/17 11:55:36;;;;;;;4.82;1.83;;;;;;;;;;5050899;28;20033;-71
2022/07/17 11:58:02;;;;;;;5.20;2.08;;;;;;;;;;5050299;28;20132;-71
2022/07/17 12:00:28;;;;;;;7.57;2.15;;;;;;;;;;5051762;28;20029;-70
2022/07/17 12:03:00;;;;;;;4.20;1.75;;;;;;;;;;5051463;28;20055;-70
2022/07/17 12:05:27;;;;;;;3.78;1.83;;;;;;;;;;5033390;28;20090;-71
2022/07/17 12:07:53;;;;;;;3.67;1.73;;;;;;;;;;5051712;28;20727;-70
2022/07/17 12:10:21;;;;;;;7.68;1.90;;;;;;;;;;5050207;28;20100;-69
2022/07/17 12:13:04;;;;;;;3.33;1.90;;;;;;;;;;5051340;28;20118;-71
2022/07/17 12:15:39;;;;;;;4.03;1.85;;;;;;;;;;5052013;28;20025;-71
2022/07/17 12:18:06;;;;;;;8.02;2.17;;;;;;;;;;5051767;28;20018;-71
2022/07/17 12:20:42;;;;;;;5.53;1.90;;;;;;;;;;5052367;28;20040;-70
2022/07/17 12:23:09;;;;;;;6.30;1.80;;;;;;;;;;5053165;28;20025;-71
2022/07/17 12:25:35;;;;;;;6.63;2.20;;;;;;;;;;5053207;28;20025;-71
2022/07/17 12:28:01;;;;;;;5.75;2.33;;;;;;;;;;5052297;28;20129;-70
2022/07/17 12:30:28;;;;;;;4.25;2.42;;;;;;;;;;5051405;28;20025;-71
2022/07/17 12:32:54;;;;;;;7.25;2.70;;;;;;;;;;5051263;28;20056;-71
2022/07/17 12:35:20;;;;;;;3.35;1.90;;;;;;;;;;5051880;28;20029;-70
2022/07/17 12:37:46;;;;;;;6.15;2.25;;;;;;;;;;5050734;28;20021;-71
2022/07/17 12:40:12;;;;;;;9.82;2.30;;;;;;;;;;5051232;28;20513;-71
2022/07/17 12:42:38;;;;;;;5.32;2.00;;;;;;;;;;5051270;28;20025;-71
2022/07/17 12:45:05;;;;;;;6.43;2.65;;;;;;;;;;5054176;28;20048;-68
2022/07/17 12:47:31;;;;;;;6.85;2.17;;;;;;;;;;5051012;28;20029;-70
2022/07/17 12:49:57;;;;;;;5.90;2.08;;;;;;;;;;5053191;28;20036;-72
2022/07/17 12:52:23;;;;;;;8.23;1.92;;;;;;;;;;5052850;28;20056;-71
2022/07/17 12:54:49;;;;;;;7.63;1.80;;;;;;;;;;5052785;28;20454;-71
2022/07/17 12:57:15;;;;;;;7.45;2.17;;;;;;;;;;5051403;28;20521;-70
2022/07/17 12:59:41;;;;;;;8.13;2.67;;;;;;;;;;5051290;28;20486;-71
2022/07/17 13:02:07;;;;;;;8.75;2.33;;;;;;;;;;5050891;28;20033;-69
2022/07/17 13:04:33;;;;;;;5.18;2.17;;;;;;;;;;5050966;28;20033;-70
2022/07/17 13:06:59;;;;;;;7.05;2.58;;;;;;;;;;5049937;28;20032;-71
2022/07/17 13:09:25;;;;;;;6.38;2.03;;;;;;;;;;5048726;28;20022;-70
2022/07/17 13:11:52;;;;;;;4.40;1.95;;;;;;;;;;5049539;28;20098;-71
2022/07/17 13:14:18;;;;;;;5.72;2.03;;;;;;;;;;5050851;28;20021;-70
2022/07/17 13:16:44;;;;;;;5.00;2.10;;;;;;;;;;5051894;28;20032;-71
2022/07/17 13:19:11;;;;;;;5.20;1.90;;;;;;;;;;5052985;28;20033;-71
2022/07/17 13:21:37;;;;;;;6.47;1.90;;;;;;;;;;5052691;28;20033;-71
2022/07/17 13:24:03;;;;;;;6.70;1.98;;;;;;;;;;5053142;28;20039;-69
2022/07/17 13:26:29;;;;;;;6.57;1.90;;;;;;;;;;5052487;28;20083;-70
2022/07/17 13:28:55;;;;;;;7.03;2.15;;;;;;;;;;5052891;28;20064;-70
2022/07/17 13:31:21;;;;;;;6.55;2.17;;;;;;;;;;5054105;28;20048;-70
2022/07/17 13:33:47;;;;;;;3.88;1.88;;;;;;;;;;5053481;28;20583;-71
2022/07/17 13:36:13;;;;;;;6.07;2.10;;;;;;;;;;5052931;28;20029;-70
2022/07/17 13:38:39;;;;;;;6.05;2.17;;;;;;;;;;5035504;28;20078;-70
2022/07/17 13:41:06;;;;;;;5.43;2.55;;;;;;;;;;5052891;28;20028;-70
2022/07/17 13:43:31;;;;;;;5.38;2.13;;;;;;;;;;5053163;28;20116;-69
2022/07/17 13:45:57;;;;;;;5.75;2.58;;;;;;;;;;5053138;28;20049;-70
2022/07/17 13:48:23;;;;;;;6.30;2.58;;;;;;;;;;5051608;28;20552;-70
2022/07/17 13:50:50;;;;;;;6.60;2.60;;;;;;;;;;5051593;28;20029;-71
2022/07/17 13:53:16;;;;;;;6.60;2.80;;;;;;;;;;5052879;28;20487;-71
2022/07/17 13:55:42;;;;;;;7.20;2.50;;;;;;;;;;5053123;28;20040;-71
2022/07/17 13:58:08;;;;;;;6.78;2.63;;;;;;;;;;5051234;28;20025;-70
2022/07/17 14:00:34;;;;;;;7.00;2.63;;;;;;;;;;5052450;28;20070;-68
2022/07/17 14:03:00;;;;;;;6.40;2.63;;;;;;;;;;5052101;28;20108;-70
2022/07/17 14:05:26;;;;;;;8.70;3.10;;;;;;;;;;5052864;28;20036;-71
2022/07/17 14:07:52;;;;;;;5.30;3.22;;;;;;;;;;5052407;28;20029;-71
2022/07/17 14:10:18;;;;;;;7.03;3.20;;;;;;;;;;5052662;28;20033;-72
2022/07/17 14:12:44;;;;;;;5.53;2.88;;;;;;;;;;5050957;28;20139;-68
2022/07/17 14:15:10;;;;;;;6.00;3.42;;;;;;;;;;5052483;28;20060;-70
2022/07/17 14:17:37;;;;;;;9.00;3.30;;;;;;;;;;5051810;28;20033;-70
2022/07/17 14:20:03;;;;;;;9.93;3.05;;;;;;;;;;5053178;28;20036;-70
2022/07/17 14:22:29;;;;;;;6.97;3.45;;;;;;;;;;5052932;28;20490;-70
2022/07/17 14:24:55;;;;;;;8.48;3.47;;;;;;;;;;5035005;28;20116;-70
2022/07/17 14:27:21;;;;;;;6.68;3.63;;;;;;;;;;5053405;28;20037;-70
2022/07/17 14:29:48;;;;;;;5.50;3.10;;;;;;;;;;5052410;28;20491;-69
2022/07/17 14:32:14;;;;;;;6.72;2.83;;;;;;;;;;5052264;28;20108;-71
2022/07/17 14:34:41;;;;;;;4.93;2.85;;;;;;;;;;5052358;28;20025;-71